Fillmore, North Dakota
Current Conditions -  °F | °C
As of 2:15 AM on Thursday 29 Jan 2015 (Local Time) from K5H4 Reporting Station
Overcast Overcast  
Wind Chill: 15°   Ceiling: 1200
Heat Index: 27°   Visibility: 10mi
Dew Point: 25°   Wind: 15mph
Humidity: 93%   Direction: 340°NNW
Pressure: 30.25"   Gusts: 21mph
Location:  48.0994°N, 99.6793°W
Report Text: K5H4 290815Z AUTO 34013G18KT 10SM OVC012 M03/M04 A3025 RMK AO2
Loading
Personal Weather Stations






























Interactive Weather Map New forecast layout! Learn more

10-Day Weather Forecast

Advertisements
Track Severe Weather on mobile